sensor_id;sensor_type;location;lat;lon;timestamp;P1;durP1;ratioP1;P2;durP2;ratioP2
85328;SDS011;76315;47.638;21.652;2024-02-21T00:01:50;29.60;;;13.70;;
85328;SDS011;76315;47.638;21.652;2024-02-21T00:04:15;29.38;;;13.65;;
85328;SDS011;76315;47.638;21.652;2024-02-21T00:06:41;27.93;;;12.60;;
85328;SDS011;76315;47.638;21.652;2024-02-21T00:09:07;25.50;;;14.60;;
85328;SDS011;76315;47.638;21.652;2024-02-21T00:11:34;26.17;;;14.07;;
85328;SDS011;76315;47.638;21.652;2024-02-21T00:14:00;28.30;;;13.47;;
85328;SDS011;76315;47.638;21.652;2024-02-21T00:16:26;29.27;;;13.60;;
85328;SDS011;76315;47.638;21.652;2024-02-21T00:18:52;27.90;;;13.70;;
85328;SDS011;76315;47.638;21.652;2024-02-21T00:21:17;30.88;;;14.18;;
85328;SDS011;76315;47.638;21.652;2024-02-21T00:23:46;29.67;;;13.77;;
85328;SDS011;76315;47.638;21.652;2024-02-21T00:26:12;28.38;;;13.93;;
85328;SDS011;76315;47.638;21.652;2024-02-21T00:28:38;26.55;;;13.50;;
85328;SDS011;76315;47.638;21.652;2024-02-21T00:31:04;31.88;;;14.57;;
85328;SDS011;76315;47.638;21.652;2024-02-21T00:33:30;28.50;;;14.33;;
85328;SDS011;76315;47.638;21.652;2024-02-21T00:35:55;28.60;;;14.82;;
85328;SDS011;76315;47.638;21.652;2024-02-21T00:38:21;26.97;;;14.17;;
85328;SDS011;76315;47.638;21.652;2024-02-21T00:40:47;29.20;;;14.23;;
85328;SDS011;76315;47.638;21.652;2024-02-21T00:43:12;29.20;;;14.23;;
85328;SDS011;76315;47.638;21.652;2024-02-21T00:45:38;28.77;;;13.97;;
85328;SDS011;76315;47.638;21.652;2024-02-21T00:48:04;32.73;;;14.40;;
85328;SDS011;76315;47.638;21.652;2024-02-21T00:50:29;31.35;;;13.95;;
85328;SDS011;76315;47.638;21.652;2024-02-21T00:52:55;29.75;;;13.85;;
85328;SDS011;76315;47.638;21.652;2024-02-21T00:55:21;30.83;;;15.32;;
85328;SDS011;76315;47.638;21.652;2024-02-21T00:57:46;33.37;;;13.97;;
85328;SDS011;76315;47.638;21.652;2024-02-21T01:00:12;31.02;;;14.10;;
85328;SDS011;76315;47.638;21.652;2024-02-21T01:02:38;31.40;;;14.18;;
85328;SDS011;76315;47.638;21.652;2024-02-21T01:05:04;33.75;;;15.70;;
85328;SDS011;76315;47.638;21.652;2024-02-21T01:07:30;30.00;;;13.83;;
85328;SDS011;76315;47.638;21.652;2024-02-21T01:09:55;28.55;;;13.02;;
85328;SDS011;76315;47.638;21.652;2024-02-21T01:12:21;30.87;;;14.53;;
85328;SDS011;76315;47.638;21.652;2024-02-21T01:14:47;27.40;;;14.13;;
85328;SDS011;76315;47.638;21.652;2024-02-21T01:17:12;31.67;;;14.50;;
85328;SDS011;76315;47.638;21.652;2024-02-21T01:19:38;29.45;;;13.80;;
85328;SDS011;76315;47.638;21.652;2024-02-21T01:22:04;31.07;;;14.17;;
85328;SDS011;76315;47.638;21.652;2024-02-21T01:24:29;28.13;;;14.40;;
85328;SDS011;76315;47.638;21.652;2024-02-21T01:26:55;27.70;;;13.77;;
85328;SDS011;76315;47.638;21.652;2024-02-21T01:29:20;30.47;;;14.77;;
85328;SDS011;76315;47.638;21.652;2024-02-21T01:31:46;28.00;;;14.55;;
85328;SDS011;76315;47.638;21.652;2024-02-21T01:34:12;32.17;;;14.82;;
85328;SDS011;76315;47.638;21.652;2024-02-21T01:36:38;31.23;;;15.90;;
85328;SDS011;76315;47.638;21.652;2024-02-21T01:39:04;29.53;;;14.57;;
85328;SDS011;76315;47.638;21.652;2024-02-21T01:41:30;27.35;;;13.88;;
85328;SDS011;76315;47.638;21.652;2024-02-21T01:43:56;31.40;;;14.73;;
85328;SDS011;76315;47.638;21.652;2024-02-21T01:46:22;30.70;;;13.63;;
85328;SDS011;76315;47.638;21.652;2024-02-21T01:48:48;30.95;;;14.32;;
85328;SDS011;76315;47.638;21.652;2024-02-21T01:51:13;29.17;;;14.70;;
85328;SDS011;76315;47.638;21.652;2024-02-21T01:53:42;32.55;;;14.70;;
85328;SDS011;76315;47.638;21.652;2024-02-21T01:56:08;30.88;;;15.13;;
85328;SDS011;76315;47.638;21.652;2024-02-21T01:58:35;32.20;;;14.67;;
85328;SDS011;76315;47.638;21.652;2024-02-21T02:01:02;33.58;;;15.93;;
85328;SDS011;76315;47.638;21.652;2024-02-21T02:03:28;30.53;;;14.80;;
85328;SDS011;76315;47.638;21.652;2024-02-21T02:05:55;33.05;;;14.57;;
85328;SDS011;76315;47.638;21.652;2024-02-21T02:08:20;28.67;;;15.15;;
85328;SDS011;76315;47.638;21.652;2024-02-21T02:10:49;30.00;;;15.10;;
85328;SDS011;76315;47.638;21.652;2024-02-21T02:13:15;32.17;;;15.23;;
85328;SDS011;76315;47.638;21.652;2024-02-21T02:15:45;29.43;;;14.30;;
85328;SDS011;76315;47.638;21.652;2024-02-21T02:18:11;30.02;;;14.88;;
85328;SDS011;76315;47.638;21.652;2024-02-21T02:20:37;29.90;;;14.88;;
85328;SDS011;76315;47.638;21.652;2024-02-21T02:25:36;33.03;;;15.33;;
85328;SDS011;76315;47.638;21.652;2024-02-21T02:28:03;33.83;;;15.13;;
85328;SDS011;76315;47.638;21.652;2024-02-21T02:30:31;33.63;;;15.93;;
85328;SDS011;76315;47.638;21.652;2024-02-21T02:33:04;37.25;;;15.65;;
85328;SDS011;76315;47.638;21.652;2024-02-21T02:35:30;27.58;;;14.50;;
85328;SDS011;76315;47.638;21.652;2024-02-21T02:37:56;30.10;;;14.40;;
85328;SDS011;76315;47.638;21.652;2024-02-21T02:40:21;29.35;;;13.88;;
85328;SDS011;76315;47.638;21.652;2024-02-21T02:42:47;31.50;;;15.17;;
85328;SDS011;76315;47.638;21.652;2024-02-21T02:45:14;32.72;;;15.05;;
85328;SDS011;76315;47.638;21.652;2024-02-21T02:47:40;29.27;;;13.85;;
85328;SDS011;76315;47.638;21.652;2024-02-21T02:50:06;32.20;;;15.10;;
85328;SDS011;76315;47.638;21.652;2024-02-21T02:52:32;31.83;;;13.75;;
85328;SDS011;76315;47.638;21.652;2024-02-21T02:54:58;33.63;;;14.93;;
85328;SDS011;76315;47.638;21.652;2024-02-21T02:57:24;28.90;;;12.93;;
85328;SDS011;76315;47.638;21.652;2024-02-21T02:59:52;31.70;;;14.80;;
85328;SDS011;76315;47.638;21.652;2024-02-21T03:02:18;30.88;;;13.88;;
85328;SDS011;76315;47.638;21.652;2024-02-21T03:04:43;31.30;;;13.93;;
85328;SDS011;76315;47.638;21.652;2024-02-21T03:07:09;30.77;;;14.73;;
85328;SDS011;76315;47.638;21.652;2024-02-21T03:09:36;31.67;;;13.67;;
85328;SDS011;76315;47.638;21.652;2024-02-21T03:12:03;33.75;;;13.55;;
85328;SDS011;76315;47.638;21.652;2024-02-21T03:14:29;29.98;;;14.25;;
85328;SDS011;76315;47.638;21.652;2024-02-21T03:16:55;35.38;;;14.55;;
85328;SDS011;76315;47.638;21.652;2024-02-21T03:19:21;36.07;;;15.13;;
85328;SDS011;76315;47.638;21.652;2024-02-21T03:21:46;32.58;;;15.32;;
85328;SDS011;76315;47.638;21.652;2024-02-21T03:24:12;33.63;;;14.80;;
85328;SDS011;76315;47.638;21.652;2024-02-21T03:26:37;29.35;;;13.63;;
85328;SDS011;76315;47.638;21.652;2024-02-21T03:29:03;29.63;;;14.70;;
85328;SDS011;76315;47.638;21.652;2024-02-21T03:31:29;35.78;;;15.23;;
85328;SDS011;76315;47.638;21.652;2024-02-21T03:33:54;30.77;;;13.27;;
85328;SDS011;76315;47.638;21.652;2024-02-21T03:36:20;28.40;;;14.33;;
85328;SDS011;76315;47.638;21.652;2024-02-21T03:38:46;30.77;;;15.05;;
85328;SDS011;76315;47.638;21.652;2024-02-21T03:41:12;30.97;;;14.80;;
85328;SDS011;76315;47.638;21.652;2024-02-21T03:43:38;28.65;;;13.98;;
85328;SDS011;76315;47.638;21.652;2024-02-21T03:46:04;31.20;;;14.60;;
85328;SDS011;76315;47.638;21.652;2024-02-21T03:48:30;30.73;;;14.70;;
85328;SDS011;76315;47.638;21.652;2024-02-21T03:50:55;30.63;;;14.20;;
85328;SDS011;76315;47.638;21.652;2024-02-21T03:53:21;30.15;;;14.10;;
85328;SDS011;76315;47.638;21.652;2024-02-21T03:55:46;31.70;;;15.60;;
85328;SDS011;76315;47.638;21.652;2024-02-21T03:58:12;30.97;;;13.77;;
85328;SDS011;76315;47.638;21.652;2024-02-21T04:00:37;32.17;;;15.65;;
85328;SDS011;76315;47.638;21.652;2024-02-21T04:03:04;33.37;;;14.73;;
85328;SDS011;76315;47.638;21.652;2024-02-21T04:05:29;29.70;;;14.02;;
85328;SDS011;76315;47.638;21.652;2024-02-21T04:07:55;34.77;;;15.77;;
85328;SDS011;76315;47.638;21.652;2024-02-21T04:10:20;31.20;;;14.90;;
85328;SDS011;76315;47.638;21.652;2024-02-21T04:12:46;35.17;;;14.93;;
85328;SDS011;76315;47.638;21.652;2024-02-21T04:15:12;34.77;;;16.17;;
85328;SDS011;76315;47.638;21.652;2024-02-21T04:17:37;35.03;;;14.77;;
85328;SDS011;76315;47.638;21.652;2024-02-21T04:20:03;32.60;;;14.95;;
85328;SDS011;76315;47.638;21.652;2024-02-21T04:22:30;33.88;;;15.15;;
85328;SDS011;76315;47.638;21.652;2024-02-21T04:24:59;34.30;;;14.97;;
85328;SDS011;76315;47.638;21.652;2024-02-21T04:27:25;33.88;;;15.45;;
85328;SDS011;76315;47.638;21.652;2024-02-21T04:29:50;33.17;;;14.90;;
85328;SDS011;76315;47.638;21.652;2024-02-21T04:32:16;33.07;;;14.67;;
85328;SDS011;76315;47.638;21.652;2024-02-21T04:34:41;29.97;;;14.47;;
85328;SDS011;76315;47.638;21.652;2024-02-21T04:37:07;34.05;;;15.50;;
85328;SDS011;76315;47.638;21.652;2024-02-21T04:39:32;36.97;;;15.77;;
85328;SDS011;76315;47.638;21.652;2024-02-21T04:41:58;32.07;;;15.60;;
85328;SDS011;76315;47.638;21.652;2024-02-21T04:44:24;30.80;;;14.65;;
85328;SDS011;76315;47.638;21.652;2024-02-21T04:46:49;32.13;;;13.98;;
85328;SDS011;76315;47.638;21.652;2024-02-21T04:49:15;32.17;;;15.03;;
85328;SDS011;76315;47.638;21.652;2024-02-21T04:51:40;32.30;;;14.65;;
85328;SDS011;76315;47.638;21.652;2024-02-21T04:54:06;32.40;;;14.47;;
85328;SDS011;76315;47.638;21.652;2024-02-21T04:56:31;35.60;;;15.70;;
85328;SDS011;76315;47.638;21.652;2024-02-21T04:58:57;35.85;;;15.60;;
85328;SDS011;76315;47.638;21.652;2024-02-21T05:01:23;35.60;;;15.67;;
85328;SDS011;76315;47.638;21.652;2024-02-21T05:03:48;35.40;;;15.50;;
85328;SDS011;76315;47.638;21.652;2024-02-21T05:06:14;34.80;;;15.47;;
85328;SDS011;76315;47.638;21.652;2024-02-21T05:08:40;30.70;;;14.10;;
85328;SDS011;76315;47.638;21.652;2024-02-21T05:11:05;33.22;;;16.38;;
85328;SDS011;76315;47.638;21.652;2024-02-21T05:13:32;31.77;;;14.75;;
85328;SDS011;76315;47.638;21.652;2024-02-21T05:15:57;33.83;;;15.07;;
85328;SDS011;76315;47.638;21.652;2024-02-21T05:18:26;32.28;;;15.68;;
85328;SDS011;76315;47.638;21.652;2024-02-21T05:20:52;33.05;;;15.15;;
85328;SDS011;76315;47.638;21.652;2024-02-21T05:23:18;35.53;;;15.93;;
85328;SDS011;76315;47.638;21.652;2024-02-21T05:25:43;37.58;;;15.70;;
85328;SDS011;76315;47.638;21.652;2024-02-21T05:28:09;29.63;;;15.10;;
85328;SDS011;76315;47.638;21.652;2024-02-21T05:30:34;34.67;;;15.27;;
85328;SDS011;76315;47.638;21.652;2024-02-21T05:33:03;34.28;;;15.88;;
85328;SDS011;76315;47.638;21.652;2024-02-21T05:35:32;34.15;;;15.88;;
85328;SDS011;76315;47.638;21.652;2024-02-21T05:37:58;32.90;;;16.63;;
85328;SDS011;76315;47.638;21.652;2024-02-21T05:40:24;34.35;;;16.65;;
85328;SDS011;76315;47.638;21.652;2024-02-21T05:42:50;33.33;;;15.60;;
85328;SDS011;76315;47.638;21.652;2024-02-21T05:45:17;34.95;;;15.75;;
85328;SDS011;76315;47.638;21.652;2024-02-21T05:47:43;42.30;;;17.75;;
85328;SDS011;76315;47.638;21.652;2024-02-21T05:50:09;36.92;;;17.73;;
85328;SDS011;76315;47.638;21.652;2024-02-21T05:52:35;38.00;;;17.50;;
85328;SDS011;76315;47.638;21.652;2024-02-21T05:55:00;35.53;;;17.20;;
85328;SDS011;76315;47.638;21.652;2024-02-21T05:57:26;49.20;;;22.23;;
85328;SDS011;76315;47.638;21.652;2024-02-21T05:59:52;53.40;;;24.15;;
85328;SDS011;76315;47.638;21.652;2024-02-21T06:02:19;49.43;;;23.57;;
85328;SDS011;76315;47.638;21.652;2024-02-21T06:04:45;49.30;;;22.40;;
85328;SDS011;76315;47.638;21.652;2024-02-21T06:07:11;54.70;;;23.25;;
85328;SDS011;76315;47.638;21.652;2024-02-21T06:09:37;50.73;;;22.80;;
85328;SDS011;76315;47.638;21.652;2024-02-21T06:12:02;48.85;;;23.65;;
85328;SDS011;76315;47.638;21.652;2024-02-21T06:14:28;56.83;;;24.40;;
85328;SDS011;76315;47.638;21.652;2024-02-21T06:16:54;48.20;;;22.70;;
85328;SDS011;76315;47.638;21.652;2024-02-21T06:19:19;57.60;;;25.27;;
85328;SDS011;76315;47.638;21.652;2024-02-21T06:21:45;48.47;;;23.85;;
85328;SDS011;76315;47.638;21.652;2024-02-21T06:24:11;55.67;;;23.17;;
85328;SDS011;76315;47.638;21.652;2024-02-21T06:26:37;48.13;;;23.30;;
85328;SDS011;76315;47.638;21.652;2024-02-21T06:29:05;50.60;;;22.87;;
85328;SDS011;76315;47.638;21.652;2024-02-21T06:31:31;55.08;;;22.67;;
85328;SDS011;76315;47.638;21.652;2024-02-21T06:33:57;49.38;;;23.08;;
85328;SDS011;76315;47.638;21.652;2024-02-21T06:36:22;51.73;;;23.20;;
85328;SDS011;76315;47.638;21.652;2024-02-21T06:38:48;57.15;;;24.70;;
85328;SDS011;76315;47.638;21.652;2024-02-21T06:41:14;55.20;;;24.13;;
85328;SDS011;76315;47.638;21.652;2024-02-21T06:43:40;55.20;;;25.48;;
85328;SDS011;76315;47.638;21.652;2024-02-21T06:46:06;63.33;;;27.50;;
85328;SDS011;76315;47.638;21.652;2024-02-21T06:48:34;54.30;;;24.77;;
85328;SDS011;76315;47.638;21.652;2024-02-21T06:51:00;53.90;;;23.98;;
85328;SDS011;76315;47.638;21.652;2024-02-21T06:53:25;54.13;;;24.33;;
85328;SDS011;76315;47.638;21.652;2024-02-21T06:55:53;55.33;;;24.67;;
85328;SDS011;76315;47.638;21.652;2024-02-21T06:58:19;54.88;;;25.65;;
85328;SDS011;76315;47.638;21.652;2024-02-21T07:00:44;65.07;;;28.63;;
85328;SDS011;76315;47.638;21.652;2024-02-21T07:03:10;59.50;;;25.58;;
85328;SDS011;76315;47.638;21.652;2024-02-21T07:05:38;63.08;;;27.70;;
85328;SDS011;76315;47.638;21.652;2024-02-21T07:08:03;60.30;;;26.57;;
85328;SDS011;76315;47.638;21.652;2024-02-21T07:10:29;53.40;;;24.57;;
85328;SDS011;76315;47.638;21.652;2024-02-21T07:12:55;55.05;;;25.20;;
85328;SDS011;76315;47.638;21.652;2024-02-21T07:15:20;54.17;;;25.53;;
85328;SDS011;76315;47.638;21.652;2024-02-21T07:17:46;59.00;;;25.10;;
85328;SDS011;76315;47.638;21.652;2024-02-21T07:20:12;44.60;;;21.87;;
85328;SDS011;76315;47.638;21.652;2024-02-21T07:22:40;38.58;;;19.50;;
85328;SDS011;76315;47.638;21.652;2024-02-21T07:25:06;49.33;;;22.30;;
85328;SDS011;76315;47.638;21.652;2024-02-21T07:27:32;46.30;;;21.90;;
85328;SDS011;76315;47.638;21.652;2024-02-21T07:29:58;46.20;;;21.20;;
85328;SDS011;76315;47.638;21.652;2024-02-21T07:32:24;45.23;;;21.67;;
85328;SDS011;76315;47.638;21.652;2024-02-21T07:34:49;46.47;;;21.80;;
85328;SDS011;76315;47.638;21.652;2024-02-21T07:37:15;42.25;;;20.73;;
85328;SDS011;76315;47.638;21.652;2024-02-21T07:39:40;44.17;;;20.60;;
85328;SDS011;76315;47.638;21.652;2024-02-21T07:42:06;31.90;;;15.57;;
85328;SDS011;76315;47.638;21.652;2024-02-21T07:44:32;36.23;;;17.07;;
85328;SDS011;76315;47.638;21.652;2024-02-21T07:46:58;40.42;;;19.67;;
85328;SDS011;76315;47.638;21.652;2024-02-21T07:49:24;33.40;;;15.27;;
85328;SDS011;76315;47.638;21.652;2024-02-21T07:51:52;30.42;;;14.98;;
85328;SDS011;76315;47.638;21.652;2024-02-21T07:54:18;34.15;;;16.27;;
85328;SDS011;76315;47.638;21.652;2024-02-21T07:56:43;29.50;;;14.43;;
85328;SDS011;76315;47.638;21.652;2024-02-21T07:59:09;33.35;;;15.10;;
85328;SDS011;76315;47.638;21.652;2024-02-21T08:01:40;31.47;;;14.93;;
85328;SDS011;76315;47.638;21.652;2024-02-21T08:04:06;28.05;;;13.52;;
85328;SDS011;76315;47.638;21.652;2024-02-21T08:06:32;27.20;;;12.07;;
85328;SDS011;76315;47.638;21.652;2024-02-21T08:08:57;23.30;;;12.15;;
85328;SDS011;76315;47.638;21.652;2024-02-21T08:11:27;23.35;;;11.75;;
85328;SDS011;76315;47.638;21.652;2024-02-21T08:13:53;20.27;;;10.68;;
85328;SDS011;76315;47.638;21.652;2024-02-21T08:16:18;22.30;;;11.38;;
85328;SDS011;76315;47.638;21.652;2024-02-21T08:18:47;20.83;;;10.00;;
85328;SDS011;76315;47.638;21.652;2024-02-21T08:21:13;19.73;;;10.65;;
85328;SDS011;76315;47.638;21.652;2024-02-21T08:23:41;20.02;;;9.68;;
85328;SDS011;76315;47.638;21.652;2024-02-21T08:26:09;18.90;;;8.68;;
85328;SDS011;76315;47.638;21.652;2024-02-21T08:28:38;16.75;;;8.73;;
85328;SDS011;76315;47.638;21.652;2024-02-21T08:31:04;16.43;;;7.93;;
85328;SDS011;76315;47.638;21.652;2024-02-21T08:33:29;19.85;;;9.98;;
85328;SDS011;76315;47.638;21.652;2024-02-21T08:35:55;31.27;;;14.27;;
85328;SDS011;76315;47.638;21.652;2024-02-21T08:38:20;18.40;;;8.80;;
85328;SDS011;76315;47.638;21.652;2024-02-21T08:40:46;15.30;;;8.52;;
85328;SDS011;76315;47.638;21.652;2024-02-21T08:43:14;13.65;;;7.55;;
85328;SDS011;76315;47.638;21.652;2024-02-21T08:45:41;15.80;;;8.60;;
85328;SDS011;76315;47.638;21.652;2024-02-21T08:48:17;15.32;;;6.95;;
85328;SDS011;76315;47.638;21.652;2024-02-21T08:50:56;15.43;;;7.28;;
85328;SDS011;76315;47.638;21.652;2024-02-21T08:53:21;16.93;;;6.63;;
85328;SDS011;76315;47.638;21.652;2024-02-21T08:55:47;11.57;;;6.03;;
85328;SDS011;76315;47.638;21.652;2024-02-21T08:58:12;15.60;;;7.40;;
85328;SDS011;76315;47.638;21.652;2024-02-21T09:00:39;11.40;;;5.63;;
85328;SDS011;76315;47.638;21.652;2024-02-21T09:03:05;11.32;;;6.45;;
85328;SDS011;76315;47.638;21.652;2024-02-21T09:05:31;9.30;;;4.60;;
85328;SDS011;76315;47.638;21.652;2024-02-21T09:07:56;11.52;;;5.72;;
85328;SDS011;76315;47.638;21.652;2024-02-21T09:10:22;11.43;;;5.23;;
85328;SDS011;76315;47.638;21.652;2024-02-21T09:12:53;9.73;;;4.88;;
85328;SDS011;76315;47.638;21.652;2024-02-21T09:15:29;10.50;;;5.10;;
85328;SDS011;76315;47.638;21.652;2024-02-21T09:18:12;12.23;;;5.78;;
85328;SDS011;76315;47.638;21.652;2024-02-21T09:20:37;9.30;;;4.85;;
85328;SDS011;76315;47.638;21.652;2024-02-21T09:23:13;10.27;;;5.23;;
85328;SDS011;76315;47.638;21.652;2024-02-21T09:25:58;11.55;;;5.30;;
85328;SDS011;76315;47.638;21.652;2024-02-21T09:28:30;13.43;;;5.68;;
85328;SDS011;76315;47.638;21.652;2024-02-21T09:31:10;10.17;;;5.00;;
85328;SDS011;76315;47.638;21.652;2024-02-21T09:33:45;10.10;;;4.80;;
85328;SDS011;76315;47.638;21.652;2024-02-21T09:36:11;9.98;;;4.97;;
85328;SDS011;76315;47.638;21.652;2024-02-21T09:38:46;8.93;;;4.60;;
85328;SDS011;76315;47.638;21.652;2024-02-21T09:41:17;11.77;;;5.28;;
85328;SDS011;76315;47.638;21.652;2024-02-21T09:43:46;11.23;;;5.68;;
85328;SDS011;76315;47.638;21.652;2024-02-21T09:46:40;10.20;;;5.78;;
85328;SDS011;76315;47.638;21.652;2024-02-21T09:52:10;9.83;;;4.50;;
85328;SDS011;76315;47.638;21.652;2024-02-21T09:54:38;10.05;;;5.85;;
85328;SDS011;76315;47.638;21.652;2024-02-21T09:57:07;12.68;;;5.45;;
85328;SDS011;76315;47.638;21.652;2024-02-21T09:59:33;10.98;;;5.47;;
85328;SDS011;76315;47.638;21.652;2024-02-21T10:01:59;10.55;;;4.93;;
85328;SDS011;76315;47.638;21.652;2024-02-21T10:04:28;9.53;;;4.47;;
85328;SDS011;76315;47.638;21.652;2024-02-21T10:06:57;8.65;;;4.82;;
85328;SDS011;76315;47.638;21.652;2024-02-21T10:09:35;10.10;;;4.65;;
85328;SDS011;76315;47.638;21.652;2024-02-21T10:12:18;8.27;;;4.57;;
85328;SDS011;76315;47.638;21.652;2024-02-21T10:14:44;8.57;;;4.22;;
85328;SDS011;76315;47.638;21.652;2024-02-21T10:17:15;8.37;;;4.23;;
85328;SDS011;76315;47.638;21.652;2024-02-21T10:19:43;6.82;;;2.55;;
85328;SDS011;76315;47.638;21.652;2024-02-21T10:22:09;8.70;;;3.83;;
85328;SDS011;76315;47.638;21.652;2024-02-21T10:24:35;11.02;;;3.97;;
85328;SDS011;76315;47.638;21.652;2024-02-21T10:27:06;9.63;;;4.50;;
85328;SDS011;76315;47.638;21.652;2024-02-21T10:29:37;9.03;;;3.83;;
85328;SDS011;76315;47.638;21.652;2024-02-21T10:32:07;7.22;;;3.60;;
85328;SDS011;76315;47.638;21.652;2024-02-21T10:34:41;11.00;;;4.93;;
85328;SDS011;76315;47.638;21.652;2024-02-21T10:37:08;8.95;;;3.67;;
85328;SDS011;76315;47.638;21.652;2024-02-21T10:39:40;9.98;;;4.50;;
85328;SDS011;76315;47.638;21.652;2024-02-21T10:42:06;8.97;;;4.77;;
85328;SDS011;76315;47.638;21.652;2024-02-21T10:44:35;7.85;;;4.40;;
85328;SDS011;76315;47.638;21.652;2024-02-21T10:47:05;9.70;;;4.70;;
85328;SDS011;76315;47.638;21.652;2024-02-21T10:49:35;8.18;;;4.50;;
85328;SDS011;76315;47.638;21.652;2024-02-21T10:54:55;13.87;;;6.13;;
85328;SDS011;76315;47.638;21.652;2024-02-21T10:57:22;10.68;;;5.45;;
85328;SDS011;76315;47.638;21.652;2024-02-21T10:59:48;13.13;;;6.15;;
85328;SDS011;76315;47.638;21.652;2024-02-21T11:02:14;9.43;;;4.90;;
85328;SDS011;76315;47.638;21.652;2024-02-21T11:04:40;8.83;;;4.07;;
85328;SDS011;76315;47.638;21.652;2024-02-21T11:07:07;10.82;;;5.32;;
85328;SDS011;76315;47.638;21.652;2024-02-21T11:09:32;10.63;;;6.03;;
85328;SDS011;76315;47.638;21.652;2024-02-21T11:12:01;12.15;;;6.45;;
85328;SDS011;76315;47.638;21.652;2024-02-21T11:14:28;21.33;;;10.10;;
85328;SDS011;76315;47.638;21.652;2024-02-21T11:16:57;21.83;;;12.25;;
85328;SDS011;76315;47.638;21.652;2024-02-21T11:21:49;28.10;;;13.20;;
85328;SDS011;76315;47.638;21.652;2024-02-21T11:26:54;24.77;;;13.25;;
85328;SDS011;76315;47.638;21.652;2024-02-21T11:29:23;22.90;;;11.93;;
85328;SDS011;76315;47.638;21.652;2024-02-21T11:31:50;25.80;;;12.85;;
85328;SDS011;76315;47.638;21.652;2024-02-21T11:34:17;23.30;;;11.88;;
85328;SDS011;76315;47.638;21.652;2024-02-21T11:36:50;23.88;;;11.85;;
85328;SDS011;76315;47.638;21.652;2024-02-21T11:39:26;24.05;;;12.18;;
85328;SDS011;76315;47.638;21.652;2024-02-21T11:42:02;23.67;;;11.93;;
85328;SDS011;76315;47.638;21.652;2024-02-21T11:44:33;25.20;;;12.00;;
85328;SDS011;76315;47.638;21.652;2024-02-21T11:46:59;25.63;;;13.05;;
85328;SDS011;76315;47.638;21.652;2024-02-21T11:49:25;22.73;;;12.32;;
85328;SDS011;76315;47.638;21.652;2024-02-21T11:52:01;22.27;;;11.75;;
85328;SDS011;76315;47.638;21.652;2024-02-21T11:54:29;18.40;;;10.35;;
85328;SDS011;76315;47.638;21.652;2024-02-21T11:56:55;19.30;;;9.73;;
85328;SDS011;76315;47.638;21.652;2024-02-21T11:59:21;21.03;;;11.07;;
85328;SDS011;76315;47.638;21.652;2024-02-21T12:01:47;21.88;;;10.48;;
85328;SDS011;76315;47.638;21.652;2024-02-21T12:04:14;22.83;;;11.73;;
85328;SDS011;76315;47.638;21.652;2024-02-21T12:06:39;20.73;;;10.97;;
85328;SDS011;76315;47.638;21.652;2024-02-21T12:09:07;18.63;;;10.25;;
85328;SDS011;76315;47.638;21.652;2024-02-21T12:11:34;19.15;;;9.77;;
85328;SDS011;76315;47.638;21.652;2024-02-21T12:14:00;21.50;;;11.30;;
85328;SDS011;76315;47.638;21.652;2024-02-21T12:16:28;19.33;;;10.35;;
85328;SDS011;76315;47.638;21.652;2024-02-21T12:18:55;19.90;;;10.57;;
85328;SDS011;76315;47.638;21.652;2024-02-21T12:21:30;19.42;;;10.43;;
85328;SDS011;76315;47.638;21.652;2024-02-21T12:23:57;21.90;;;11.07;;
85328;SDS011;76315;47.638;21.652;2024-02-21T12:26:23;22.30;;;11.02;;
85328;SDS011;76315;47.638;21.652;2024-02-21T12:28:49;22.17;;;11.43;;
85328;SDS011;76315;47.638;21.652;2024-02-21T12:31:22;20.23;;;10.63;;
85328;SDS011;76315;47.638;21.652;2024-02-21T12:33:48;24.93;;;11.93;;
85328;SDS011;76315;47.638;21.652;2024-02-21T12:36:13;59.53;;;29.55;;
85328;SDS011;76315;47.638;21.652;2024-02-21T12:38:39;36.80;;;18.70;;
85328;SDS011;76315;47.638;21.652;2024-02-21T12:41:05;21.57;;;10.87;;
85328;SDS011;76315;47.638;21.652;2024-02-21T12:43:32;22.23;;;11.55;;
85328;SDS011;76315;47.638;21.652;2024-02-21T12:45:59;22.25;;;13.13;;
85328;SDS011;76315;47.638;21.652;2024-02-21T12:48:25;18.93;;;10.13;;
85328;SDS011;76315;47.638;21.652;2024-02-21T12:50:50;20.73;;;10.30;;
85328;SDS011;76315;47.638;21.652;2024-02-21T12:53:17;20.65;;;10.45;;
85328;SDS011;76315;47.638;21.652;2024-02-21T12:55:47;18.60;;;10.18;;
85328;SDS011;76315;47.638;21.652;2024-02-21T12:58:21;22.58;;;11.95;;
85328;SDS011;76315;47.638;21.652;2024-02-21T13:00:47;23.83;;;12.33;;
85328;SDS011;76315;47.638;21.652;2024-02-21T13:03:13;20.42;;;10.85;;
85328;SDS011;76315;47.638;21.652;2024-02-21T13:05:45;22.60;;;11.20;;
85328;SDS011;76315;47.638;21.652;2024-02-21T13:08:19;19.80;;;10.93;;
85328;SDS011;76315;47.638;21.652;2024-02-21T13:10:47;17.35;;;9.40;;
85328;SDS011;76315;47.638;21.652;2024-02-21T13:13:14;19.95;;;9.88;;
85328;SDS011;76315;47.638;21.652;2024-02-21T13:15:50;17.40;;;9.88;;
85328;SDS011;76315;47.638;21.652;2024-02-21T13:18:15;22.33;;;11.43;;
85328;SDS011;76315;47.638;21.652;2024-02-21T13:20:41;19.05;;;11.05;;
85328;SDS011;76315;47.638;21.652;2024-02-21T13:23:07;21.30;;;11.33;;
85328;SDS011;76315;47.638;21.652;2024-02-21T13:25:35;20.77;;;10.63;;
85328;SDS011;76315;47.638;21.652;2024-02-21T13:28:01;18.80;;;10.23;;
85328;SDS011;76315;47.638;21.652;2024-02-21T13:30:28;18.17;;;9.18;;
85328;SDS011;76315;47.638;21.652;2024-02-21T13:32:56;19.20;;;10.32;;
85328;SDS011;76315;47.638;21.652;2024-02-21T13:35:21;18.23;;;9.53;;
85328;SDS011;76315;47.638;21.652;2024-02-21T13:37:47;18.00;;;9.77;;
85328;SDS011;76315;47.638;21.652;2024-02-21T13:40:13;16.88;;;9.48;;
85328;SDS011;76315;47.638;21.652;2024-02-21T13:42:39;16.67;;;8.85;;
85328;SDS011;76315;47.638;21.652;2024-02-21T13:45:07;15.50;;;8.03;;
85328;SDS011;76315;47.638;21.652;2024-02-21T13:47:33;16.73;;;8.07;;
85328;SDS011;76315;47.638;21.652;2024-02-21T13:49:59;23.67;;;16.10;;
85328;SDS011;76315;47.638;21.652;2024-02-21T13:52:25;15.20;;;9.27;;
85328;SDS011;76315;47.638;21.652;2024-02-21T13:54:53;16.08;;;8.82;;
85328;SDS011;76315;47.638;21.652;2024-02-21T13:57:19;13.63;;;7.47;;
85328;SDS011;76315;47.638;21.652;2024-02-21T13:59:47;14.23;;;7.97;;
85328;SDS011;76315;47.638;21.652;2024-02-21T14:02:16;13.65;;;7.88;;
85328;SDS011;76315;47.638;21.652;2024-02-21T14:04:44;14.02;;;7.70;;
85328;SDS011;76315;47.638;21.652;2024-02-21T14:07:09;15.00;;;8.48;;
85328;SDS011;76315;47.638;21.652;2024-02-21T14:09:35;14.05;;;7.78;;
85328;SDS011;76315;47.638;21.652;2024-02-21T14:12:01;16.23;;;7.47;;
85328;SDS011;76315;47.638;21.652;2024-02-21T14:14:27;14.63;;;7.72;;
85328;SDS011;76315;47.638;21.652;2024-02-21T14:16:53;14.90;;;7.60;;
85328;SDS011;76315;47.638;21.652;2024-02-21T14:19:19;13.93;;;8.07;;
85328;SDS011;76315;47.638;21.652;2024-02-21T14:21:44;12.93;;;6.70;;
85328;SDS011;76315;47.638;21.652;2024-02-21T14:24:10;13.83;;;7.37;;
85328;SDS011;76315;47.638;21.652;2024-02-21T14:26:37;12.27;;;6.32;;